Terminal Aerodrome Forecast
Issued by NWS Cleveland, OH

Home | Current Version | Previous Version | Graphics & Text | Print | Product List | Glossary On
Versions: 1 2 3 4 5 6 7 8 9 10 11 12 13 14 15 16 17 18 19 20 21 22 23 24 25 26 27 28 29 30
000
FTUS41 KCLE 181900 AAA
TAFERI
TAF AMD
KERI 181917Z 1819/1918 22022G35KT 3SM -SN BLSN BKN025
      TEMPO 1819/1821 1 1/2SM -SN OVC015
     FM182100 22022G32KT 1/2SM SN BLSN VV008
      TEMPO 1822/1902 1/4SM SN BLSN VV004
     FM190600 22015G25KT 2SM -SN OVC025
     FM191000 20014G22KT P6SM BKN035=

USA.gov is the U.S. government's official web portal to all federal, state and local government web resources and services.